.
WxDataArchive / Data Records for 2006-11-06
2006-11-05 November 2006 2006-11-07

Data Records for Monday, 06 November 2006

Time	Temp	Chill	HIndex	Humid	Dewpt	 Wind 	HiWind	WindDir	Rain 	Barom 
-----	----	-----	------	-----	-----	------	------	-------	-----	----- 
00:00	43.8	43.8	43.8	76	36.7	0	0	---	0.00	30.252 
00:05	43.5	43.5	43.5	76	36.4	0	0	---	0.00	30.252 
00:10	43.2	43.2	43.2	77	36.5	0	0	---	0.00	30.252 
00:15	42.9	42.9	42.9	77	36.2	0	0	---	0.00	30.252 
00:20	42.6	42.6	42.6	78	36.2	0	0	---	0.00	30.252 
00:25	42.5	42.5	42.5	78	36.1	0	0	---	0.00	30.252 
00:30	42.3	42.3	42.3	78	35.9	0	0	---	0.00	30.253 
00:35	42.3	42.3	42.3	79	36.3	0	0	---	0.00	30.253 
00:40	42.3	42.3	42.3	79	36.3	0	0	---	0.00	30.253 
00:45	42.3	42.3	42.3	80	36.6	0	0	---	0.00	30.255 
00:50	42.5	42.5	42.5	79	36.5	0	0	---	0.00	30.255 
00:55	42.6	42.6	42.6	80	36.9	0	0	---	0.00	30.255 
01:00	42.8	42.8	42.8	80	37.1	0	0	---	0.00	30.255 
01:05	43.1	43.1	43.1	79	37.0	0	0	---	0.00	30.255 
01:10	43.3	43.3	43.3	78	36.9	0	0	---	0.00	30.255 
01:15	43.3	43.3	43.3	78	36.9	0	0	---	0.00	30.251 
01:20	43.5	43.5	43.5	78	37.1	0	0	---	0.00	30.251 
01:25	43.5	43.5	43.5	77	36.8	0	0	---	0.00	30.251 
01:30	43.5	43.5	43.5	79	37.4	0	0	---	0.00	30.251 
01:35	43.6	43.6	43.6	77	36.9	0	0	---	0.00	30.251 
01:40	43.6	43.6	43.6	77	36.9	0	0	---	0.00	30.251 
01:45	43.5	43.5	43.5	78	37.1	0	0	---	0.00	30.252 
01:50	43.5	43.5	43.5	78	37.1	0	0	---	0.00	30.252 
01:55	43.3	43.3	43.3	78	36.9	0	0	---	0.00	30.252 
02:00	43.3	43.3	43.3	78	36.9	0	0	---	0.00	30.256 
02:05	43.2	43.2	43.2	79	37.1	0	0	---	0.00	30.256 
02:10	43.2	43.2	43.2	79	37.1	0	0	---	0.00	30.256 
02:15	43.2	43.2	43.2	79	37.1	0	0	---	0.00	30.256 
02:20	43.1	43.1	43.1	79	37.0	0	0	---	0.00	30.256 
02:25	43.1	43.1	43.1	79	37.0	0	0	---	0.00	30.256 
02:30	42.9	42.9	42.9	79	36.8	0	0	---	0.00	30.255 
02:35	42.9	42.9	42.9	79	36.8	0	0	---	0.00	30.255 
02:40	42.8	42.8	42.8	80	37.1	0	0	---	0.00	30.255 
02:45	42.8	42.8	42.8	80	37.1	0	0	---	0.00	30.254 
02:50	42.6	42.6	42.6	80	36.9	0	0	---	0.00	30.254 
02:55	42.6	42.6	42.6	80	36.9	0	0	---	0.00	30.254 
03:00	42.6	42.6	42.6	80	36.9	0	0	---	0.00	30.252 
03:05	42.6	42.6	42.6	81	37.2	0	0	---	0.00	30.252 
03:10	42.8	42.8	42.8	81	37.4	0	0	---	0.00	30.252 
03:15	42.8	42.8	42.8	82	37.7	0	0	---	0.00	30.248 
03:20	42.8	42.8	42.8	82	37.7	0	0	---	0.00	30.248 
03:25	42.8	42.8	42.8	82	37.7	0	0	---	0.00	30.248 
03:30	42.8	42.8	42.8	81	37.4	0	0	---	0.00	30.246 
03:35	42.9	42.9	42.9	81	37.5	0	0	---	0.00	30.246 
03:40	42.9	42.9	42.9	81	37.5	0	0	---	0.00	30.246 
03:45	42.9	42.9	42.9	81	37.5	0	0	---	0.00	30.241 
03:50	42.9	42.9	42.9	81	37.5	0	1	248	0.00	30.241 
03:55	43.1	43.1	43.1	81	37.7	0	1	248	0.00	30.241 
04:00	43.2	43.2	43.2	80	37.5	0	1	248	0.00	30.238 
04:05	43.2	43.2	43.2	80	37.5	0	0	---	0.00	30.238 
04:10	43.3	43.3	43.3	80	37.6	0	0	---	0.00	30.238 
04:15	43.3	43.3	43.3	80	37.6	0	0	---	0.00	30.236 
04:20	43.3	43.3	43.3	80	37.6	0	0	---	0.00	30.236 
04:25	43.3	43.3	43.3	80	37.6	0	0	---	0.00	30.236 
04:30	43.3	43.3	43.3	80	37.6	0	0	---	0.00	30.236 
04:35	43.2	43.2	43.2	80	37.5	0	0	---	0.00	30.236 
04:40	43.2	43.2	43.2	80	37.5	0	0	---	0.00	30.236 
04:45	43.2	43.2	43.2	80	37.5	0	0	---	0.00	30.234 
04:50	43.1	43.1	43.1	80	37.4	0	1	248	0.00	30.234 
04:55	43.1	43.1	43.1	80	37.4	0	1	248	0.00	30.234 
05:00	43.1	43.1	43.1	80	37.4	0	0	---	0.00	30.234 
05:05	43.1	43.1	43.1	79	37.0	0	0	---	0.00	30.234 
05:10	43.1	43.1	43.1	79	37.0	0	0	---	0.00	30.234 
05:15	43.1	43.1	43.1	79	37.0	0	0	---	0.00	30.236 
05:20	43.1	43.1	43.1	79	37.0	0	1	248	0.00	30.236 
05:25	43.1	43.1	43.1	78	36.7	0	1	248	0.00	30.236 
05:30	43.1	43.1	43.1	78	36.7	0	1	248	0.00	30.235 
05:35	42.9	42.9	42.9	78	36.5	0	1	248	0.00	30.235 
05:40	42.8	42.8	42.8	79	36.7	0	0	---	0.00	30.235 
05:45	42.5	42.5	42.5	80	36.8	0	0	---	0.00	30.233 
05:50	42.2	42.2	42.2	81	36.8	0	0	---	0.00	30.233 
05:55	41.8	41.8	41.8	81	36.4	0	0	---	0.00	30.233 
06:00	41.6	41.6	41.6	81	36.2	0	0	---	0.00	30.227 
06:05	41.3	41.3	41.3	81	35.9	0	0	---	0.00	30.227 
06:10	41.2	41.2	41.2	82	36.1	0	0	---	0.00	30.227 
06:15	41.1	41.1	41.1	82	36.0	0	0	---	0.00	30.234 
06:20	41.1	41.1	41.1	82	36.0	0	0	---	0.00	30.234 
06:25	41.2	41.2	41.2	83	36.4	0	0	---	0.00	30.234 
06:30	41.2	41.2	41.2	82	36.1	0	0	---	0.00	30.238 
06:35	41.3	41.3	41.3	82	36.2	0	0	---	0.00	30.238 
06:40	41.3	41.3	41.3	82	36.2	0	0	---	0.00	30.238 
06:45	41.5	41.5	41.5	82	36.4	0	0	---	0.00	30.238 
06:50	41.6	41.6	41.6	83	36.8	0	0	---	0.00	30.238 
06:55	41.8	41.8	41.8	82	36.7	0	0	---	0.00	30.238 
07:00	41.8	41.8	41.8	82	36.7	0	0	---	0.00	30.239 
07:05	41.8	41.8	41.8	82	36.7	0	0	---	0.00	30.239 
07:10	41.9	41.9	41.9	82	36.8	0	0	---	0.00	30.239 
07:15	41.9	41.9	41.9	82	36.8	0	0	---	0.00	30.241 
07:20	41.9	41.9	41.9	82	36.8	0	1	248	0.00	30.241 
07:25	42.1	42.1	42.1	81	36.7	0	1	248	0.00	30.241 
07:30	42.2	42.2	42.2	81	36.8	0	1	248	0.00	30.241 
07:35	42.3	42.3	42.3	81	36.9	0	2	248	0.00	30.241 
07:40	42.3	42.3	42.3	81	36.9	1	2	248	0.00	30.241 
07:45	42.5	42.5	42.5	80	36.8	1	2	248	0.00	30.240 
07:50	42.5	42.5	42.5	80	36.8	1	3	248	0.00	30.240 
07:55	42.5	42.5	42.5	80	36.8	1	2	112	0.00	30.240 
08:00	42.5	42.5	42.5	80	36.8	1	3	112	0.00	30.240 
08:05	42.6	42.6	42.6	80	36.9	0	1	112	0.00	30.240 
08:10	42.6	42.6	42.6	80	36.9	1	2	112	0.00	30.240 
08:15	42.8	42.8	42.8	80	37.1	1	3	90	0.00	30.240 
08:20	42.8	42.8	42.8	80	37.1	1	2	90	0.00	30.240 
08:25	43.1	43.1	43.1	80	37.4	1	2	90	0.00	30.240 
08:30	43.2	43.2	43.2	79	37.1	1	2	90	0.00	30.245 
08:35	43.3	43.3	43.3	80	37.6	1	2	90	0.00	30.245 
08:40	43.6	43.6	43.6	79	37.5	1	1	90	0.00	30.245 
08:45	43.8	43.8	43.8	79	37.7	0	2	90	0.00	30.244 
08:50	44.1	44.1	44.1	79	38.0	1	2	90	0.00	30.244 
08:55	44.3	44.3	44.3	79	38.2	0	2	90	0.00	30.244 
09:00	44.6	44.6	44.6	79	38.5	0	2	90	0.00	30.242 
09:05	44.8	44.8	44.8	78	38.4	0	1	90	0.00	30.242 
09:10	45.1	45.1	45.1	78	38.7	0	1	90	0.00	30.242 
09:15	45.2	45.2	45.2	77	38.4	0	1	90	0.00	30.249 
09:20	45.4	45.4	45.4	78	38.9	0	1	90	0.00	30.249 
09:25	45.5	45.5	45.5	77	38.7	0	2	90	0.00	30.249 
09:30	45.8	45.8	45.8	77	39.0	0	2	90	0.00	30.241 
09:35	46.1	46.1	46.1	76	39.0	1	2	90	0.00	30.241 
09:40	46.4	46.4	46.4	76	39.3	0	2	90	0.00	30.241 
09:45	46.7	46.7	46.7	75	39.2	0	2	90	0.00	30.233 
09:50	47.1	47.1	47.1	75	39.6	0	3	90	0.00	30.233 
09:55	47.4	47.4	47.4	74	39.5	0	3	90	0.00	30.233 
10:00	47.7	47.7	47.7	74	39.8	0	2	90	0.00	30.225 
10:05	48.2	48.2	48.2	73	40.0	1	3	90	0.00	30.225 
10:10	48.6	48.6	48.6	73	40.3	1	3	135	0.00	30.225 
10:15	49.1	49.1	49.1	71	40.1	1	3	90	0.00	30.218 
10:20	49.6	49.6	49.6	70	40.2	1	2	112	0.00	30.218 
10:25	50.4	50.4	50.4	66	39.5	1	3	112	0.00	30.218 
10:30	51.0	51.0	51.0	64	39.3	1	3	135	0.00	30.205 
10:35	51.6	51.6	51.6	59	37.7	1	5	135	0.00	30.205 
10:40	52.0	52.0	52.0	58	37.7	1	5	90	0.00	30.205 
10:45	52.3	52.3	52.3	58	38.0	1	3	112	0.00	30.207 
10:50	52.8	52.8	52.8	57	38.0	1	2	135	0.00	30.207 
10:55	53.2	53.2	53.2	56	37.9	1	4	112	0.00	30.207 
11:00	53.5	53.5	53.5	55	37.7	1	3	248	0.00	30.205 
11:05	53.9	53.9	53.9	53	37.2	1	3	135	0.00	30.205 
11:10	53.9	53.9	53.9	54	37.6	0	2	68	0.00	30.205 
11:15	54.1	54.1	54.1	55	38.3	0	1	45	0.00	30.204 
11:20	54.2	54.2	54.2	55	38.4	0	2	45	0.00	30.204 
11:25	54.5	54.5	54.5	54	38.2	1	2	45	0.00	30.204 
11:30	54.7	54.7	54.7	54	38.4	1	2	112	0.00	30.202 
11:35	54.8	54.8	54.8	51	37.0	1	4	112	0.00	30.202 
11:40	54.8	54.8	54.8	51	37.0	1	3	112	0.00	30.202 
11:45	54.7	54.7	54.7	52	37.4	1	2	90	0.00	30.194 
11:50	54.8	54.8	54.8	51	37.0	0	2	90	0.00	30.194 
11:55	54.7	54.7	54.7	50	36.4	1	3	90	0.00	30.194 
12:00	55.0	55.0	55.0	52	37.7	0	2	112	0.00	30.187 
12:05	55.1	55.1	55.1	49	36.3	0	2	112	0.00	30.187 
12:10	55.3	55.3	55.3	51	37.5	0	2	135	0.00	30.187 
12:15	55.4	55.4	55.4	51	37.6	0	2	180	0.00	30.181 
12:20	55.7	55.7	55.7	50	37.3	1	4	248	0.00	30.181 
12:25	56.0	56.0	56.0	48	36.6	1	3	112	0.00	30.181 
12:30	56.3	56.3	56.3	49	37.4	0	2	112	0.00	30.178 
12:35	56.5	56.5	56.5	47	36.5	1	3	112	0.00	30.178 
12:40	56.6	56.6	56.6	45	35.5	1	4	90	0.00	30.178 
12:45	56.7	56.7	56.7	45	35.6	1	3	112	0.00	30.171 
12:50	56.9	56.9	56.9	46	36.3	1	3	90	0.00	30.171 
12:55	57.0	57.0	57.0	46	36.4	1	2	90	0.00	30.171 
13:00	57.2	57.2	57.2	47	37.2	1	3	90	0.00	30.168 
13:05	57.3	57.3	57.3	46	36.7	1	4	112	0.00	30.168 
13:10	57.5	57.5	57.5	50	39.0	0	2	135	0.00	30.168 
13:15	57.6	57.6	57.6	46	37.0	1	2	135	0.00	30.162 
13:20	57.8	57.8	57.8	46	37.2	1	3	112	0.00	30.162 
13:25	57.8	57.8	57.8	45	36.6	1	2	112	0.00	30.162 
13:30	57.8	57.8	57.8	45	36.6	1	3	90	0.00	30.157 
13:35	57.8	57.8	57.8	44	36.0	1	3	90	0.00	30.157 
13:40	57.6	57.6	57.6	48	38.1	1	3	68	0.00	30.157 
13:45	57.6	57.6	57.6	46	37.0	1	4	112	0.00	30.152 
13:50	57.5	57.5	57.5	44	35.8	0	2	180	0.00	30.152 
13:55	57.6	57.6	57.6	44	35.8	1	3	112	0.00	30.152 
14:00	57.8	57.8	57.8	45	36.6	0	2	90	0.00	30.145 
14:05	58.0	58.0	58.0	46	37.3	0	2	90	0.00	30.145 
14:10	58.0	58.0	58.0	45	36.8	0	3	90	0.00	30.145 
14:15	57.6	57.6	57.6	45	36.4	1	4	270	0.00	30.143 
14:20	57.5	57.5	57.5	48	38.0	0	1	270	0.00	30.143 
14:25	57.3	57.3	57.3	46	36.7	1	2	270	0.00	30.143 
14:30	57.3	57.3	57.3	47	37.2	0	1	135	0.00	30.137 
14:35	57.2	57.2	57.2	48	37.7	0	2	135	0.00	30.137 
14:40	57.2	57.2	57.2	47	37.2	1	3	112	0.00	30.137 
14:45	57.0	57.0	57.0	48	37.5	0	1	112	0.00	30.125 
14:50	57.2	57.2	57.2	47	37.2	1	4	112	0.00	30.125 
14:55	57.3	57.3	57.3	47	37.2	1	3	112	0.00	30.125 
15:00	57.3	57.3	57.3	47	37.2	0	4	158	0.00	30.123 
15:05	57.5	57.5	57.5	46	36.9	1	4	135	0.00	30.123 
15:10	57.5	57.5	57.5	46	36.9	0	2	112	0.00	30.123 
15:15	57.5	57.5	57.5	47	37.4	0	3	90	0.00	30.123 
15:20	57.5	57.5	57.5	46	36.9	0	2	90	0.00	30.123 
15:25	57.5	57.5	57.5	47	37.4	0	1	112	0.00	30.123 
15:30	57.3	57.3	57.3	48	37.8	0	2	112	0.00	30.121 
15:35	57.3	57.3	57.3	48	37.8	0	2	112	0.00	30.121 
15:40	57.2	57.2	57.2	48	37.7	0	3	112	0.00	30.121 
15:45	57.2	57.2	57.2	49	38.2	0	2	112	0.00	30.120 
15:50	57.0	57.0	57.0	48	37.5	0	1	112	0.00	30.120 
15:55	57.0	57.0	57.0	49	38.0	0	1	112	0.00	30.120 
16:00	57.0	57.0	57.0	49	38.0	0	3	90	0.00	30.119 
16:05	57.0	57.0	57.0	49	38.0	0	1	90	0.00	30.119 
16:10	56.9	56.9	56.9	48	37.4	0	1	90	0.00	30.119 
16:15	56.9	56.9	56.9	48	37.4	0	2	112	0.00	30.116 
16:20	56.7	56.7	56.7	49	37.8	0	2	135	0.00	30.116 
16:25	56.7	56.7	56.7	49	37.8	1	3	90	0.00	30.116 
16:30	56.6	56.6	56.6	49	37.7	0	1	90	0.00	30.118 
16:35	56.6	56.6	56.6	50	38.2	1	3	90	0.00	30.118 
16:40	56.5	56.5	56.5	50	38.1	0	2	112	0.00	30.118 
16:45	56.3	56.3	56.3	50	37.9	0	2	112	0.00	30.123 
16:50	56.2	56.2	56.2	51	38.3	0	2	112	0.00	30.123 
16:55	56.0	56.0	56.0	50	37.6	0	2	112	0.00	30.123 
17:00	55.7	55.7	55.7	49	36.8	0	2	112	0.00	30.125 
17:05	55.4	55.4	55.4	50	37.1	1	2	248	0.00	30.125 
17:10	55.3	55.3	55.3	49	36.5	0	2	248	0.00	30.125 
17:15	55.1	55.1	55.1	50	36.8	0	1	248	0.00	30.126 
17:20	55.0	55.0	55.0	50	36.7	0	2	180	0.00	30.126 
17:25	54.8	54.8	54.8	50	36.5	0	3	112	0.00	30.126 
17:30	54.7	54.7	54.7	50	36.4	0	2	112	0.00	30.126 
17:35	54.5	54.5	54.5	50	36.2	0	1	112	0.00	30.126 
17:40	54.4	54.4	54.4	50	36.2	0	1	112	0.00	30.126 
17:45	54.2	54.2	54.2	51	36.5	0	2	112	0.00	30.120 
17:50	54.1	54.1	54.1	53	37.4	0	1	112	0.00	30.120 
17:55	53.9	53.9	53.9	53	37.2	0	1	112	0.00	30.120 
18:00	53.6	53.6	53.6	54	37.4	0	1	112	0.00	30.111 
18:05	53.5	53.5	53.5	54	37.3	0	1	112	0.00	30.111 
18:10	53.2	53.2	53.2	54	37.0	0	0	---	0.00	30.111 
18:15	53.1	53.1	53.1	56	37.8	0	1	112	0.00	30.112 
18:20	52.8	52.8	52.8	57	38.0	0	1	112	0.00	30.112 
18:25	52.6	52.6	52.6	57	37.8	0	1	112	0.00	30.112 
18:30	52.6	52.6	52.6	57	37.8	0	1	112	0.00	30.102 
18:35	52.6	52.6	52.6	56	37.4	1	2	112	0.00	30.102 
18:40	52.8	52.8	52.8	56	37.5	1	2	112	0.00	30.102 
18:45	52.8	52.8	52.8	56	37.5	2	4	90	0.00	30.090 
18:50	52.8	52.8	52.8	57	38.0	0	2	90	0.00	30.090 
18:55	52.6	52.6	52.6	57	37.8	1	3	90	0.00	30.090 
19:00	52.6	52.6	52.6	58	38.2	1	3	90	0.00	30.079 
19:05	52.5	52.5	52.5	58	38.2	0	1	90	0.00	30.079 
19:10	52.3	52.3	52.3	59	38.4	1	3	90	0.00	30.079 
19:15	52.0	52.0	52.0	59	38.1	0	2	90	0.00	30.062 
19:20	52.0	52.0	52.0	60	38.5	1	2	90	0.00	30.062 
19:25	52.0	52.0	52.0	60	38.5	0	2	90	0.00	30.062 
19:30	52.0	52.0	52.0	60	38.5	1	3	90	0.00	30.062 
19:35	52.0	52.0	52.0	59	38.1	1	3	90	0.00	30.062 
19:40	52.2	52.2	52.2	61	39.2	1	3	90	0.00	30.062 
19:45	52.0	52.0	52.0	60	38.5	0	2	90	0.00	30.060 
19:50	51.9	51.9	51.9	61	38.9	1	2	90	0.00	30.060 
19:55	51.9	51.9	51.9	61	38.9	1	2	90	0.00	30.060 
20:00	51.9	51.9	51.9	60	38.5	1	3	90	0.00	30.055 
20:05	51.9	51.9	51.9	60	38.5	1	5	90	0.00	30.055 
20:10	51.7	51.7	51.7	61	38.7	1	4	90	0.00	30.055 
20:15	51.6	51.6	51.6	61	38.6	1	3	90	0.00	30.047 
20:20	51.6	51.6	51.6	60	38.2	1	4	90	0.00	30.047 
20:25	51.4	51.4	51.4	61	38.4	0	2	135	0.00	30.047 
20:30	51.3	51.3	51.3	62	38.7	1	2	135	0.00	30.045 
20:35	51.1	51.1	51.1	62	38.5	0	2	135	0.00	30.045 
20:40	51.0	51.0	51.0	62	38.4	1	2	135	0.00	30.045 
20:45	51.0	51.0	51.0	63	38.9	0	2	135	0.00	30.043 
20:50	50.8	50.8	50.8	63	38.7	0	1	135	0.00	30.043 
20:55	50.8	50.8	50.8	64	39.1	0	2	135	0.00	30.043 
21:00	50.8	50.8	50.8	64	39.1	1	2	135	0.00	30.047 
21:05	50.8	50.8	50.8	65	39.5	0	2	112	0.00	30.047 
21:10	50.8	50.8	50.8	64	39.1	0	2	135	0.00	30.047 
21:15	50.8	50.8	50.8	63	38.7	1	3	135	0.00	30.046 
21:20	51.0	51.0	51.0	63	38.9	1	3	135	0.00	30.046 
21:25	51.1	51.1	51.1	62	38.5	1	4	135	0.00	30.046 
21:30	51.3	51.3	51.3	62	38.7	1	4	112	0.00	30.054 
21:35	51.3	51.3	51.3	62	38.7	1	3	112	0.00	30.054 
21:40	51.3	51.3	51.3	62	38.7	1	3	68	0.00	30.054 
21:45	51.3	51.3	51.3	62	38.7	1	3	112	0.00	30.056 
21:50	51.4	51.4	51.4	62	38.8	1	4	90	0.00	30.056 
21:55	51.4	51.4	51.4	62	38.8	0	2	112	0.00	30.056 
22:00	51.4	51.4	51.4	62	38.8	0	1	112	0.00	30.050 
22:05	51.3	51.3	51.3	62	38.7	0	2	135	0.00	30.050 
22:10	51.1	51.1	51.1	63	38.9	0	1	135	0.00	30.050 
22:15	51.0	51.0	51.0	63	38.9	0	1	135	0.00	30.040 
22:20	51.0	51.0	51.0	63	38.9	0	1	135	0.00	30.040 
22:25	50.8	50.8	50.8	63	38.7	0	1	135	0.00	30.040 
22:30	50.8	50.8	50.8	63	38.7	0	1	135	0.00	30.040 
22:35	50.8	50.8	50.8	63	38.7	0	0	---	0.00	30.040 
22:40	50.8	50.8	50.8	64	39.1	0	0	---	0.00	30.040 
22:45	50.7	50.7	50.7	64	39.0	0	0	---	0.00	30.034 
22:50	50.5	50.5	50.5	65	39.2	0	0	---	0.00	30.034 
22:55	50.2	50.2	50.2	65	38.9	0	1	135	0.00	30.034 
23:00	50.2	50.2	50.2	65	38.9	0	0	---	0.00	30.032 
23:05	50.1	50.1	50.1	66	39.2	0	0	---	0.00	30.032 
23:10	50.1	50.1	50.1	64	38.4	0	1	135	0.00	30.032 
23:15	50.2	50.2	50.2	63	38.1	0	1	135	0.00	30.031 
23:20	50.5	50.5	50.5	62	38.0	0	2	135	0.00	30.031 
23:25	51.0	51.0	51.0	62	38.4	0	1	135	0.00	30.031 
23:30	51.1	51.1	51.1	62	38.5	0	2	135	0.00	30.026 
23:35	51.1	51.1	51.1	63	38.9	0	1	135	0.00	30.026 
23:40	51.0	51.0	51.0	64	39.3	0	1	135	0.00	30.026 
23:45	51.0	51.0	51.0	64	39.3	0	2	135	0.00	30.035 
23:50	51.0	51.0	51.0	65	39.7	0	2	135	0.00	30.035 
23:55	51.0	51.0	51.0	66	40.0	0	1	135	0.00	30.035 

CoCoRaHS
IN-AL-39
A2 Web Hosting
Creative Commons License
GoDaddy
Look for:

loaded 2017-12-13 19:51:15 • last modified 2010-11-18 10:43:29
Privacy PolicyDisclaimer
• wx.awcolley.com is powered by PmWiki v.2002016 •
• all content (unless otherwise noted) © 2017 A W Colley